createdAt,value
2024-01-08T00:01:28.543Z,0.07
2024-01-08T00:03:58.452Z,0.20
2024-01-08T00:06:28.888Z,0.26
2024-01-08T00:08:58.882Z,0.34
2024-01-08T00:11:28.744Z,0.28
2024-01-08T00:13:58.762Z,0.40
2024-01-08T00:16:31.747Z,0.37
2024-01-08T00:19:01.822Z,0.21
2024-01-08T00:21:31.613Z,0.27
2024-01-08T00:24:01.612Z,0.37
2024-01-08T00:26:32.711Z,0.33
2024-01-08T00:29:03.452Z,0.33
2024-01-08T00:31:35.987Z,0.51
2024-01-08T00:34:06.526Z,0.30
2024-01-08T00:36:40.996Z,0.39
2024-01-08T00:39:11.492Z,0.15
2024-01-08T00:41:41.545Z,0.38
2024-01-08T00:44:14.965Z,0.30
2024-01-08T00:46:47.594Z,0.30
2024-01-08T00:49:20.327Z,0.48
2024-01-08T00:51:50.377Z,0.47
2024-01-08T00:54:20.939Z,0.58
2024-01-08T00:56:51.068Z,0.57
2024-01-08T00:59:21.403Z,0.44
2024-01-08T01:01:54.290Z,0.35
2024-01-08T01:04:24.777Z,0.41
2024-01-08T01:06:55.263Z,0.33
2024-01-08T01:09:25.466Z,0.28
2024-01-08T01:11:55.692Z,0.09
2024-01-08T01:14:27.977Z,0.04
2024-01-08T01:17:00.964Z,0.32
2024-01-08T01:19:37.338Z,0.35
2024-01-08T01:22:07.761Z,0.17
2024-01-08T01:24:37.836Z,0.22
2024-01-08T01:27:08.930Z,0.31
2024-01-08T01:29:38.996Z,0.26
2024-01-08T01:32:12.386Z,0.33
2024-01-08T01:34:51.622Z,0.19
2024-01-08T01:37:21.699Z,0.24
2024-01-08T01:39:51.968Z,0.17
2024-01-08T01:42:35.959Z,0.19
2024-01-08T01:45:07.009Z,0.24
2024-01-08T01:47:40.529Z,0.37
2024-01-08T01:50:13.124Z,0.33
2024-01-08T01:52:45.692Z,0.38
2024-01-08T01:55:17.931Z,0.11
2024-01-08T01:57:51.464Z,0.34
2024-01-08T02:00:26.248Z,0.46
2024-01-08T02:03:08.299Z,0.49
2024-01-08T02:05:39.801Z,0.20
2024-01-08T02:08:13.500Z,0.32
2024-01-08T02:10:44.162Z,0.32
2024-01-08T02:13:14.500Z,0.13
2024-01-08T02:15:44.448Z,0.29
2024-01-08T02:18:17.316Z,0.42
2024-01-08T02:20:47.385Z,0.46
2024-01-08T02:23:20.161Z,0.41
2024-01-08T02:25:50.350Z,0.54
2024-01-08T02:28:20.300Z,0.53
2024-01-08T02:30:59.203Z,0.41
2024-01-08T02:33:29.398Z,0.52
2024-01-08T02:36:03.506Z,0.41
2024-01-08T02:38:36.409Z,0.57
2024-01-08T02:41:06.514Z,0.55
2024-01-08T02:43:36.414Z,0.56
2024-01-08T02:46:08.142Z,0.47
2024-01-08T02:48:38.445Z,0.54
2024-01-08T02:51:08.682Z,0.51
2024-01-08T02:53:41.517Z,0.51
2024-01-08T02:56:21.826Z,0.42
2024-01-08T02:58:52.265Z,0.31
2024-01-08T03:01:22.357Z,0.23
2024-01-08T03:03:52.410Z,0.20
2024-01-08T03:06:22.826Z,0.29
2024-01-08T03:08:55.298Z,0.25
2024-01-08T03:11:34.651Z,0.27
2024-01-08T03:14:05.200Z,0.22
2024-01-08T03:16:35.525Z,0.11
2024-01-08T03:19:11.969Z,-0.02
2024-01-08T03:21:42.750Z,0.07
2024-01-08T03:24:15.425Z,0.12
2024-01-08T03:26:45.810Z,-0.05
2024-01-08T03:32:06.607Z,-0.17
2024-01-08T03:34:38.784Z,-0.31
2024-01-08T03:37:08.982Z,-0.14
2024-01-08T03:39:41.800Z,-0.21
2024-01-08T03:42:14.965Z,-0.29
2024-01-08T03:44:48.072Z,-0.41
2024-01-08T03:47:18.165Z,-0.48
2024-01-08T03:49:48.514Z,-0.56
2024-01-08T03:52:18.437Z,-0.69
2024-01-08T03:54:51.308Z,-0.85
2024-01-08T03:57:21.787Z,-0.91
2024-01-08T03:59:51.991Z,-1.00
2024-01-08T04:02:22.124Z,-1.10
2024-01-08T04:04:52.567Z,-1.21
2024-01-08T04:07:22.734Z,-1.13
2024-01-08T04:09:55.665Z,-1.26
2024-01-08T04:12:25.631Z,-1.27
2024-01-08T04:14:55.758Z,-1.30
2024-01-08T04:17:27.868Z,-1.47
2024-01-08T04:19:58.246Z,-1.54
2024-01-08T04:22:28.390Z,-1.40
2024-01-08T04:25:04.229Z,-1.53
2024-01-08T04:27:34.342Z,-1.76
2024-01-08T04:30:04.536Z,-1.65
2024-01-08T04:32:34.491Z,-1.79
2024-01-08T04:35:04.631Z,-1.93
2024-01-08T04:37:35.107Z,-1.81
2024-01-08T04:40:09.257Z,-1.93
2024-01-08T04:42:39.136Z,-1.99
2024-01-08T04:45:09.840Z,-2.06
2024-01-08T04:47:40.120Z,-2.01
2024-01-08T04:50:11.365Z,-2.05
2024-01-08T04:52:41.618Z,-2.15
2024-01-08T04:55:14.585Z,-2.25
2024-01-08T04:57:47.482Z,-2.27
2024-01-08T05:00:18.480Z,-2.22
2024-01-08T05:02:48.599Z,-2.33
2024-01-08T05:05:18.812Z,-2.25
2024-01-08T05:07:48.762Z,-2.31
2024-01-08T05:10:21.865Z,-2.50
2024-01-08T05:12:51.861Z,-2.36
2024-01-08T05:15:21.725Z,-2.57
2024-01-08T05:17:51.637Z,-2.42
2024-01-08T05:20:21.802Z,-2.57
2024-01-08T05:22:52.006Z,-2.57
2024-01-08T05:25:24.730Z,-2.63
2024-01-08T05:27:54.914Z,-2.59
2024-01-08T05:30:24.864Z,-2.59
2024-01-08T05:32:59.227Z,-2.69
2024-01-08T05:35:35.354Z,-2.85
2024-01-08T05:38:09.331Z,-2.82
2024-01-08T05:40:42.096Z,-2.76
2024-01-08T05:43:12.118Z,-2.84
2024-01-08T05:45:42.705Z,-2.77
2024-01-08T05:48:14.034Z,-2.95
2024-01-08T05:50:44.630Z,-2.75
2024-01-08T05:53:14.505Z,-2.90
2024-01-08T05:55:47.588Z,-2.75
2024-01-08T05:58:19.817Z,-2.80
2024-01-08T06:00:49.967Z,-2.94
2024-01-08T06:03:19.776Z,-2.87
2024-01-08T06:05:49.553Z,-2.93
2024-01-08T06:08:19.799Z,-2.93
2024-01-08T06:10:53.185Z,-3.02
2024-01-08T06:13:23.458Z,-3.19
2024-01-08T06:15:53.553Z,-3.08
2024-01-08T06:18:23.759Z,-3.11
2024-01-08T06:20:53.923Z,-3.15
2024-01-08T06:23:23.795Z,-3.24
2024-01-08T06:25:57.435Z,-3.13
2024-01-08T06:28:27.417Z,-3.08
2024-01-08T06:30:57.684Z,-3.22
2024-01-08T06:33:27.927Z,-3.16
2024-01-08T06:35:58.041Z,-3.20
2024-01-08T06:38:28.344Z,-3.20
2024-01-08T06:41:01.037Z,-3.38
2024-01-08T06:43:31.584Z,-3.40
2024-01-08T06:46:03.097Z,-3.53
2024-01-08T06:48:33.018Z,-3.46
2024-01-08T06:51:04.238Z,-3.45
2024-01-08T06:53:37.649Z,-3.47
2024-01-08T06:56:10.898Z,-3.59
2024-01-08T06:58:41.208Z,-3.56
2024-01-08T07:01:11.367Z,-3.57
2024-01-08T07:03:41.607Z,-3.62
2024-01-08T07:06:11.677Z,-3.63
2024-01-08T07:08:42.033Z,-3.47
2024-01-08T07:11:23.290Z,-3.55
2024-01-08T07:13:54.003Z,-3.60
2024-01-08T07:16:24.259Z,-3.57
2024-01-08T07:18:54.180Z,-3.51
2024-01-08T07:21:24.286Z,-3.46
2024-01-08T07:23:54.105Z,-3.56
2024-01-08T07:26:26.673Z,-3.69
2024-01-08T07:28:57.114Z,-3.58
2024-01-08T07:31:27.113Z,-3.58
2024-01-08T07:33:56.931Z,-3.49
2024-01-08T07:36:27.085Z,-3.58
2024-01-08T07:38:59.605Z,-3.62
2024-01-08T07:41:32.293Z,-3.65
2024-01-08T07:44:02.203Z,-3.65
2024-01-08T07:46:31.926Z,-3.65
2024-01-08T07:49:01.886Z,-3.58
2024-01-08T07:51:33.865Z,-3.62
2024-01-08T07:54:03.925Z,-3.65
2024-01-08T07:56:45.470Z,-3.66
2024-01-08T07:59:22.879Z,-3.51
2024-01-08T08:01:52.655Z,-3.46
2024-01-08T08:04:22.527Z,-3.45
2024-01-08T08:06:52.331Z,-3.45
2024-01-08T08:09:22.163Z,-3.36
2024-01-08T08:11:54.654Z,-3.47
2024-01-08T08:14:24.552Z,-3.40
2024-01-08T08:16:54.264Z,-3.23
2024-01-08T08:19:26.591Z,-3.20
2024-01-08T08:21:57.165Z,-3.07
2024-01-08T08:24:26.831Z,-3.06
2024-01-08T08:26:59.301Z,-3.11
2024-01-08T08:29:30.263Z,-2.90
2024-01-08T08:32:01.950Z,-2.63
2024-01-08T08:34:32.308Z,-2.14
2024-01-08T08:37:05.325Z,-1.92
2024-01-08T08:39:35.694Z,-1.59
2024-01-08T08:42:09.402Z,-1.55
2024-01-08T08:44:39.421Z,-1.30
2024-01-08T08:47:09.187Z,-1.14
2024-01-08T08:49:39.168Z,-1.07
2024-01-08T08:52:09.272Z,-0.61
2024-01-08T08:54:39.185Z,-0.13
2024-01-08T08:57:11.453Z,0.25
2024-01-08T08:59:41.328Z,0.75
2024-01-08T09:02:11.012Z,0.89
2024-01-08T09:04:40.868Z,1.45
2024-01-08T09:07:10.875Z,1.85
2024-01-08T09:09:40.860Z,2.17
2024-01-08T09:12:13.383Z,2.34
2024-01-08T09:14:43.179Z,2.23
2024-01-08T09:17:13.345Z,2.46
2024-01-08T09:19:43.129Z,3.14
2024-01-08T09:22:12.902Z,2.97
2024-01-08T09:24:42.736Z,2.89
2024-01-08T09:27:14.963Z,3.16
2024-01-08T09:29:44.772Z,3.12
2024-01-08T09:32:14.470Z,3.36
2024-01-08T09:34:44.406Z,3.32
2024-01-08T09:37:14.010Z,3.61
2024-01-08T09:39:43.860Z,3.78
2024-01-08T09:42:17.760Z,3.77
2024-01-08T09:44:47.419Z,4.08
2024-01-08T09:47:18.952Z,4.05
2024-01-08T09:49:48.997Z,3.82
2024-01-08T09:52:20.775Z,3.29
2024-01-08T09:54:53.068Z,3.87
2024-01-08T09:57:25.890Z,3.67
2024-01-08T09:59:55.620Z,4.21
2024-01-08T10:02:25.384Z,4.37
2024-01-08T10:04:55.544Z,4.53
2024-01-08T10:07:25.368Z,4.73
2024-01-08T10:09:54.990Z,4.65
2024-01-08T10:12:27.469Z,4.68
2024-01-08T10:14:58.277Z,5.07
2024-01-08T10:17:28.064Z,5.19
2024-01-08T10:20:09.410Z,5.52
2024-01-08T10:22:39.742Z,5.85
2024-01-08T10:25:10.056Z,5.57
2024-01-08T10:27:42.609Z,5.08
2024-01-08T10:30:14.560Z,4.79
2024-01-08T10:32:45.015Z,5.26
2024-01-08T10:35:15.054Z,5.60
2024-01-08T10:37:46.631Z,5.63
2024-01-08T10:40:17.196Z,5.60
2024-01-08T10:42:49.802Z,6.18
2024-01-08T10:45:19.506Z,6.35
2024-01-08T10:47:53.905Z,6.99
2024-01-08T10:50:25.138Z,6.26
2024-01-08T10:52:58.020Z,6.85
2024-01-08T10:55:28.006Z,6.21
2024-01-08T10:58:08.681Z,6.11
2024-01-08T11:00:39.413Z,6.09
2024-01-08T11:03:10.784Z,6.25
2024-01-08T11:05:41.526Z,7.00
2024-01-08T11:08:14.995Z,7.23
2024-01-08T11:10:44.737Z,7.25
2024-01-08T11:13:18.958Z,6.97
2024-01-08T11:15:49.157Z,6.91
2024-01-08T11:18:31.798Z,7.06
2024-01-08T11:21:03.270Z,7.07
2024-01-08T11:23:42.263Z,6.93
2024-01-08T11:26:15.413Z,7.38
2024-01-08T11:29:04.467Z,6.82
2024-01-08T11:32:05.359Z,6.79
2024-01-08T11:35:05.517Z,6.43
2024-01-08T11:37:34.836Z,6.73
2024-01-08T11:40:06.679Z,7.07
2024-01-08T11:42:36.507Z,7.43
2024-01-08T11:45:09.733Z,7.89
2024-01-08T11:47:40.776Z,8.23
2024-01-08T11:50:11.977Z,8.74
2024-01-08T11:52:43.224Z,8.71
2024-01-08T11:55:13.977Z,9.08
2024-01-08T11:57:43.982Z,7.87
2024-01-08T12:00:24.475Z,7.93
2024-01-08T12:03:04.585Z,7.58
2024-01-08T12:05:35.619Z,7.89
2024-01-08T12:08:05.359Z,7.93
2024-01-08T12:10:35.278Z,7.48
2024-01-08T12:13:05.293Z,7.49
2024-01-08T12:15:37.622Z,7.37
2024-01-08T12:18:08.093Z,8.02
2024-01-08T12:20:38.027Z,7.80
2024-01-08T12:23:09.612Z,7.27
2024-01-08T12:25:40.070Z,7.98
2024-01-08T12:28:11.769Z,8.00
2024-01-08T12:30:45.718Z,8.25
2024-01-08T12:33:17.185Z,8.15
2024-01-08T12:35:47.157Z,8.45
2024-01-08T12:38:17.055Z,8.45
2024-01-08T12:40:46.783Z,8.42
2024-01-08T12:43:16.493Z,7.74
2024-01-08T12:45:51.962Z,7.09
2024-01-08T12:48:22.155Z,7.48
2024-01-08T12:50:52.241Z,7.16
2024-01-08T12:53:22.404Z,7.77
2024-01-08T12:55:53.167Z,7.80
2024-01-08T12:58:23.191Z,7.92
2024-01-08T13:00:56.654Z,8.05
2024-01-08T13:03:26.636Z,8.20
2024-01-08T13:05:56.576Z,8.21
2024-01-08T13:08:26.297Z,7.93
2024-01-08T13:10:56.025Z,7.88
2024-01-08T13:13:25.742Z,8.13
2024-01-08T13:15:58.166Z,7.91
2024-01-08T13:18:28.091Z,7.44
2024-01-08T13:20:58.173Z,7.16
2024-01-08T13:23:28.072Z,6.52
2024-01-08T13:25:58.107Z,6.40
2024-01-08T13:28:28.754Z,6.03
2024-01-08T13:31:04.900Z,5.68
2024-01-08T13:33:35.406Z,4.96
2024-01-08T13:36:06.334Z,5.26
2024-01-08T13:38:36.221Z,5.17
2024-01-08T13:41:06.469Z,4.78
2024-01-08T13:43:36.865Z,4.39
2024-01-08T13:46:10.501Z,4.34
2024-01-08T13:48:40.845Z,4.23
2024-01-08T13:51:11.347Z,3.98
2024-01-08T13:53:41.911Z,3.48
2024-01-08T13:56:11.728Z,3.66
2024-01-08T13:58:41.605Z,3.67
2024-01-08T14:01:14.133Z,3.76
2024-01-08T14:03:44.453Z,3.76
2024-01-08T14:06:15.051Z,3.28
2024-01-08T14:08:45.219Z,3.51
2024-01-08T14:11:15.029Z,3.24
2024-01-08T14:13:44.826Z,3.46
2024-01-08T14:16:17.505Z,3.64
2024-01-08T14:18:47.476Z,3.55
2024-01-08T14:21:17.270Z,3.41
2024-01-08T14:23:47.967Z,3.39
2024-01-08T14:26:17.979Z,3.35
2024-01-08T14:28:47.622Z,3.03
2024-01-08T14:31:19.983Z,2.94
2024-01-08T14:33:50.057Z,2.87
2024-01-08T14:36:20.562Z,2.64
2024-01-08T14:38:50.274Z,2.47
2024-01-08T14:41:21.081Z,2.06
2024-01-08T14:43:51.796Z,2.01
2024-01-08T14:46:24.150Z,1.88
2024-01-08T14:48:54.308Z,1.47
2024-01-08T14:51:24.268Z,0.93
2024-01-08T14:53:54.208Z,1.04
2024-01-08T14:56:24.509Z,0.92
2024-01-08T14:58:55.014Z,0.74
2024-01-08T15:01:27.426Z,0.74
2024-01-08T15:03:58.474Z,0.42
2024-01-08T15:06:28.331Z,0.39
2024-01-08T15:08:58.101Z,0.34
2024-01-08T15:11:27.883Z,0.04
2024-01-08T15:13:57.741Z,0.11
2024-01-08T15:16:30.263Z,0.12
2024-01-08T15:19:00.218Z,-0.05
2024-01-08T15:21:30.050Z,-0.11
2024-01-08T15:23:59.725Z,-0.12
2024-01-08T15:26:30.868Z,-0.59
2024-01-08T15:29:00.706Z,-0.39
2024-01-08T15:31:33.839Z,-0.34
2024-01-08T15:34:04.670Z,-0.50
2024-01-08T15:36:35.443Z,-0.49
2024-01-08T15:39:06.756Z,-0.65
2024-01-08T15:41:37.783Z,-0.60
2024-01-08T15:44:08.072Z,-0.72
2024-01-08T15:46:45.138Z,-0.79
2024-01-08T15:49:15.297Z,-0.74
2024-01-08T15:51:44.975Z,-0.83
2024-01-08T15:54:14.650Z,-1.00
2024-01-08T15:56:46.231Z,-1.07
2024-01-08T15:59:16.292Z,-1.07
2024-01-08T16:01:48.649Z,-1.06
2024-01-08T16:04:18.311Z,-1.15
2024-01-08T16:06:50.409Z,-1.09
2024-01-08T16:09:20.869Z,-1.06
2024-01-08T16:11:50.635Z,-1.17
2024-01-08T16:14:20.350Z,-1.16
2024-01-08T16:16:53.764Z,-1.30
2024-01-08T16:19:23.929Z,-1.35
2024-01-08T16:21:53.882Z,-1.38
2024-01-08T16:24:23.707Z,-1.36
2024-01-08T16:26:53.567Z,-1.40
2024-01-08T16:29:23.627Z,-1.39
2024-01-08T16:31:55.919Z,-1.30
2024-01-08T16:34:28.362Z,-1.44
2024-01-08T16:37:02.016Z,-1.74
2024-01-08T16:39:31.668Z,-1.73
2024-01-08T16:42:01.566Z,-1.57
2024-01-08T16:44:31.339Z,-1.63
2024-01-08T16:47:03.879Z,-1.53
2024-01-08T16:49:34.685Z,-1.71
2024-01-08T16:52:06.448Z,-1.57
2024-01-08T16:54:38.581Z,-1.56
2024-01-08T16:57:08.610Z,-1.67
2024-01-08T16:59:38.295Z,-1.74
2024-01-08T17:02:10.996Z,-1.65
2024-01-08T17:04:40.841Z,-1.94
2024-01-08T17:07:10.466Z,-1.72
2024-01-08T17:09:43.345Z,-1.78
2024-01-08T17:12:13.234Z,-1.84
2024-01-08T17:14:43.883Z,-1.98
2024-01-08T17:17:17.581Z,-1.87
2024-01-08T17:19:47.382Z,-2.04
2024-01-08T17:22:17.300Z,-2.14
2024-01-08T17:24:47.045Z,-2.02
2024-01-08T17:27:20.408Z,-1.95
2024-01-08T17:29:50.340Z,-2.05
2024-01-08T17:32:22.794Z,-2.18
2024-01-08T17:34:52.766Z,-2.07
2024-01-08T17:37:24.497Z,-2.11
2024-01-08T17:39:55.449Z,-2.20
2024-01-08T17:42:25.426Z,-2.08
2024-01-08T17:44:55.305Z,-2.10
2024-01-08T17:47:27.856Z,-2.21
2024-01-08T17:49:59.148Z,-2.14
2024-01-08T17:52:29.032Z,-2.12
2024-01-08T17:54:58.676Z,-2.23
2024-01-08T17:57:28.561Z,-2.24
2024-01-08T17:59:58.273Z,-2.34
2024-01-08T18:02:30.789Z,-2.21
2024-01-08T18:05:01.018Z,-2.25
2024-01-08T18:07:32.296Z,-2.50
2024-01-08T18:10:02.169Z,-2.36
2024-01-08T18:12:33.417Z,-2.42
2024-01-08T18:15:04.485Z,-2.42
2024-01-08T18:17:36.732Z,-2.37
2024-01-08T18:20:07.217Z,-2.52
2024-01-08T18:22:36.977Z,-2.53
2024-01-08T18:25:07.271Z,-2.54
2024-01-08T18:27:36.985Z,-2.51
2024-01-08T18:30:07.490Z,-2.49
2024-01-08T18:32:39.942Z,-2.56
2024-01-08T18:35:10.946Z,-2.53
2024-01-08T18:37:42.060Z,-2.52
2024-01-08T18:40:14.173Z,-2.60
2024-01-08T18:42:43.983Z,-2.60
2024-01-08T18:45:13.881Z,-2.66
2024-01-08T18:47:46.274Z,-2.61
2024-01-08T18:50:16.442Z,-2.65
2024-01-08T18:52:46.128Z,-2.73
2024-01-08T18:55:15.782Z,-2.77
2024-01-08T18:57:46.604Z,-2.81
2024-01-08T19:00:17.076Z,-2.81
2024-01-08T19:02:51.309Z,-2.77
2024-01-08T19:05:21.882Z,-2.76
2024-01-08T19:07:51.800Z,-2.72
2024-01-08T19:10:23.392Z,-2.86
2024-01-08T19:12:53.474Z,-2.82
2024-01-08T19:15:23.146Z,-2.89
2024-01-08T19:17:55.766Z,-2.81
2024-01-08T19:20:27.291Z,-2.93
2024-01-08T19:22:57.815Z,-2.91
2024-01-08T19:25:28.029Z,-2.91
2024-01-08T19:27:57.850Z,-2.88
2024-01-08T19:30:27.597Z,-2.91
2024-01-08T19:33:00.759Z,-2.89
2024-01-08T19:35:31.501Z,-2.97
2024-01-08T19:38:01.218Z,-2.94
2024-01-08T19:40:32.448Z,-3.12
2024-01-08T19:43:02.711Z,-3.16
2024-01-08T19:45:32.467Z,-3.12
2024-01-08T19:48:04.952Z,-3.26
2024-01-08T19:50:34.942Z,-3.16
2024-01-08T19:53:04.723Z,-3.16
2024-01-08T19:55:34.420Z,-3.18
2024-01-08T19:58:04.190Z,-3.18
2024-01-08T20:00:34.840Z,-3.23
2024-01-08T20:03:07.814Z,-3.34
2024-01-08T20:05:38.931Z,-3.36
2024-01-08T20:08:09.691Z,-3.42
2024-01-08T20:10:39.348Z,-3.46
2024-01-08T20:13:10.859Z,-3.40
2024-01-08T20:15:40.721Z,-3.55
2024-01-08T20:18:13.196Z,-3.45
2024-01-08T20:20:45.278Z,-3.53
2024-01-08T20:23:15.477Z,-3.58
2024-01-08T20:25:46.726Z,-3.61
2024-01-08T20:28:16.693Z,-3.65
2024-01-08T20:30:49.276Z,-3.64
2024-01-08T20:33:21.740Z,-3.71
2024-01-08T20:35:51.927Z,-3.75
2024-01-08T20:38:21.610Z,-3.70
2024-01-08T20:40:51.393Z,-3.71
2024-01-08T20:43:21.558Z,-3.89
2024-01-08T20:45:52.208Z,-3.93
2024-01-08T20:48:24.751Z,-3.87
2024-01-08T20:50:54.707Z,-4.06
2024-01-08T20:53:24.402Z,-3.98
2024-01-08T20:55:54.259Z,-4.11
2024-01-08T20:58:24.101Z,-4.15
2024-01-08T21:00:53.729Z,-4.11
2024-01-08T21:03:26.220Z,-4.08
2024-01-08T21:05:56.226Z,-4.24
2024-01-08T21:08:26.247Z,-4.08
2024-01-08T21:10:58.238Z,-4.02
2024-01-08T21:13:28.191Z,-4.05
2024-01-08T21:15:57.792Z,-4.07
2024-01-08T21:18:30.431Z,-4.14
2024-01-08T21:21:00.462Z,-4.30
2024-01-08T21:23:31.110Z,-4.15
2024-01-08T21:26:00.883Z,-4.14
2024-01-08T21:28:30.599Z,-4.16
2024-01-08T21:31:00.630Z,-4.38
2024-01-08T21:33:33.371Z,-4.21
2024-01-08T21:36:03.823Z,-4.27
2024-01-08T21:38:37.534Z,-4.27
2024-01-08T21:41:08.086Z,-4.25
2024-01-08T21:43:38.470Z,-4.54
2024-01-08T21:46:08.117Z,-4.38
2024-01-08T21:48:42.806Z,-4.56
2024-01-08T21:51:13.291Z,-4.49
2024-01-08T21:53:43.311Z,-4.57
2024-01-08T21:56:13.127Z,-4.52
2024-01-08T21:58:45.255Z,-4.51
2024-01-08T22:01:15.471Z,-4.56
2024-01-08T22:03:47.933Z,-4.54
2024-01-08T22:06:18.604Z,-4.52
2024-01-08T22:08:48.378Z,-4.48
2024-01-08T22:11:19.208Z,-4.55
2024-01-08T22:13:49.591Z,-4.50
2024-01-08T22:16:19.278Z,-4.66
2024-01-08T22:18:51.806Z,-4.67
2024-01-08T22:21:21.627Z,-4.68
2024-01-08T22:23:51.831Z,-4.66
2024-01-08T22:26:23.099Z,-4.72
2024-01-08T22:28:55.048Z,-4.60
2024-01-08T22:31:24.768Z,-4.81
2024-01-08T22:33:57.165Z,-4.79
2024-01-08T22:36:27.079Z,-4.73
2024-01-08T22:38:57.119Z,-4.65
2024-01-08T22:41:26.987Z,-4.72
2024-01-08T22:44:05.357Z,-4.71
2024-01-08T22:46:40.844Z,-4.77
2024-01-08T22:49:13.173Z,-4.68
2024-01-08T22:51:43.049Z,-4.75
2024-01-08T22:54:12.728Z,-4.77
2024-01-08T22:56:42.467Z,-4.71
2024-01-08T22:59:13.616Z,-4.74
2024-01-08T23:01:48.974Z,-4.87
2024-01-08T23:04:22.513Z,-4.80
2024-01-08T23:06:52.618Z,-4.88
2024-01-08T23:09:22.675Z,-4.94
2024-01-08T23:11:52.562Z,-4.87
2024-01-08T23:14:22.434Z,-4.85
2024-01-08T23:16:52.199Z,-4.91
2024-01-08T23:19:24.813Z,-4.82
2024-01-08T23:21:54.690Z,-4.82
2024-01-08T23:24:24.374Z,-4.90
2024-01-08T23:26:57.845Z,-4.90
2024-01-08T23:29:27.646Z,-5.00
2024-01-08T23:31:57.498Z,-5.02
2024-01-08T23:34:29.828Z,-4.99
2024-01-08T23:36:59.611Z,-4.91
2024-01-08T23:39:29.311Z,-4.92
2024-01-08T23:41:59.268Z,-5.02
2024-01-08T23:44:29.935Z,-5.01
2024-01-08T23:46:59.615Z,-5.05
2024-01-08T23:49:32.037Z,-5.08
2024-01-08T23:52:01.916Z,-5.11
2024-01-08T23:54:31.502Z,-5.17
2024-01-08T23:57:01.245Z,-5.37
2024-01-08T23:59:30.953Z,-5.27
